Relevés horaires Beauvechain (Belgique)


Relevés horaires à Beauvechain - Samedi 20 Juin 2020
Heure UTC1 Température [°C] Vent [km/h] Hum. [%] Pres.4 [hPa] Visi. [Km] Nébu. [octa] Préc.5 [mm] Cond.
2m. Res. Ros. Dir.2 Vit. Moy. Raf.3
23:00 17.0 17.0 10.4 NNO 1.9 -- 3.7 65 1020.7(0.1/3h) 20 -- -- --
22:00 17.4 17.4 10.5 NNO 1.9 -- 1.9 64 1021.2(0.5/3h) 20 -- -- --
21:00 18.0 18.0 10.7 NNO 1.9 -- 3.7 62 1021(0.2/3h) 20 -- -- --
20:00 18.5 18.5 11.3 NNO 1.9 -- 1.9 63 1020.7(0.0/3h) 20 -- -- --
19:00 20.0 20.0 10.4 NNO 1.9 -- 3.7 54 1020.5(-0.4/3h) 20 -- -- --
18:00 20.8 20.8 10.4 NNO 1.9 -- 13.0 51 1020.6(-0.6/3h) 20 -- -- --
17:00 20.8 20.8 10.6 NNO 1.9 -- 7.4 52 1020.7(-0.8/3h) 20 -- -- --
16:00 20.3 20.3 10.9 NO 5.6 -- 7.4 55 1020.8(-0.7/3h) 20 -- -- --
15:00 20.9 20.9 10.8 O 3.7 -- 13.0 52 1021.2(-0.7/3h) 20 -- -- --
14:00 21.0 21.0 11.3 O 3.7 -- 13.0 54 1021.5(-0.5/3h) 20 -- -- --
13:00 19.4 19.4 9.9 NO 3.7 -- 13.0 54 1021.7(-0.5/3h) 19 -- -- --
12:00 19.0 19.0 10.3 O 5.6 -- 11.1 57 1022.1(0.0/3h) 20 -- -- --
11:00 18.3 18.3 10.8 SO 5.6 -- 9.3 62 1022.2(0.1/3h) 20 -- -- --
10:00 17.5 17.5 10.5 OSO 7.4 -- 11.1 63 1022.3(0.5/3h) 18 -- -- --
09:00 17.1 17.1 10.4 SO 5.6 -- 9.3 65 1022.2(0.6/3h) 20 -- -- --
08:00 16.9 16.9 10.1 OSO 5.6 -- 9.3 64 1022.1(1.0/3h) 20 -- -- --
07:00 15.2 15.2 9.6 NNO 3.7 -- 5.6 69 1022(0.7/3h) 20 -- -- --
06:00 14.5 14.5 10.0 NNO 1.9 -- 7.4 74 1021.7(0.8/3h) 20 -- -- --
05:00 12.9 12.9 9.2 NNO 1.9 -- 3.7 78 1021.2(0.5/3h) 20 -- -- --
04:00 12.0 12.0 9.6 SSO 3.7 -- 3.7 85 1021.2(0.4/3h) 20 -- -- --
03:00 11.8 11.8 10.1 OSO 3.7 -- 7.4 89 1021(0.4/3h) 20 -- -- --
02:00 12.6 12.6 10.3 OSO 3.7 -- 7.4 86 1020.7(0.4/3h) 20 -- -- --
01:00 13.4 13.4 11.3 O 5.6 -- 5.6 87 1020.7(0.6/3h) 20 -- -- --
00:00 14.8 14.8 11.5 OSO 3.7 -- 7.4 81 1020.5(0.9/3h) 20 -- -- --

1 Coordinated Universal Time. Actuellement il est 20:00 locale et 18:00 UTC.

2 Le vent souffle depuis la direction indiquée vers la direction oposée.

3 Les rafales max. sont disponible 40 min après l'heure du relevé.

4 Pour les stations d'altitude (plus de 600m) le géopotentiel du niveau le plus proche de la pression obligatoire est indiqué.

5 Les stations disposant d'un diffuseur peuvent indiquer "trace". Cela signifie que des précipitations ont touchés le sol mais que la quantité est inférieure à 0.1 mm.

Récapitulatif de la journée
Température [°C] Vent [km/h] Ensoleillement4 [h] Precipitations totale5 [mm] Pression [Hpa]
Min1 Max.2 Moy.3 Max. Min Max.
11.6 22.3 0 13.0 0 h 0 min 0 1020.5 1022.3

1 Température minimale relevée entre 18:00 UTC la veille et 18:00 UTC le jour donné.

2 Température maximale relevée entre 06:00 UTC le jour donné et 06:00 UTC le lendemain.

3 Vent moyen de la journée basé sur les relevés horaires.

4 Ensoleillement en heures relevé entre 06:00 UTC la veille et 06:00 UTC le jour donné.

5 Précipitations totales tombées entre 06:00 UTC la jour donné et 06:00 UTC le lendemain.

Graphiques horaires